createdAt,value
2022-10-06T00:04:43.548Z,20.3
2022-10-06T00:14:51.854Z,20.3
2022-10-06T00:24:59.500Z,20.4
2022-10-06T00:35:06.986Z,20.4
2022-10-06T00:45:14.581Z,20.3
2022-10-06T00:55:22.179Z,20.4
2022-10-06T01:05:29.687Z,20.3
2022-10-06T01:15:37.323Z,20.4
2022-10-06T01:25:44.834Z,20.2
2022-10-06T01:35:52.299Z,20.2
2022-10-06T01:46:00.099Z,20.2
2022-10-06T01:56:08.387Z,20
2022-10-06T02:06:16.828Z,20.1
2022-10-06T02:16:25.349Z,19.9
2022-10-06T02:26:33.023Z,19.8
2022-10-06T02:36:40.541Z,19.8
2022-10-06T02:46:48.170Z,19.7
2022-10-06T02:56:56.065Z,19.7
2022-10-06T03:07:03.529Z,19.6
2022-10-06T03:17:11.020Z,19.5
2022-10-06T03:27:18.636Z,19.4
2022-10-06T03:37:26.261Z,19.1
2022-10-06T03:47:33.748Z,19.2
2022-10-06T03:57:41.230Z,18.8
2022-10-06T04:07:48.730Z,19
2022-10-06T04:17:56.475Z,19
2022-10-06T04:28:04.039Z,19.1
2022-10-06T04:38:11.554Z,19
2022-10-06T04:48:20.658Z,18.7
2022-10-06T04:58:22.975Z,18.6
2022-10-06T05:08:30.819Z,18.5
2022-10-06T05:18:39.428Z,18.6
2022-10-06T05:28:47.186Z,18.5
2022-10-06T05:38:55.710Z,18.3
2022-10-06T05:49:03.360Z,18.4
2022-10-06T05:59:10.965Z,18.4
2022-10-06T06:09:18.549Z,18.5
2022-10-06T06:19:29.021Z,18.5
2022-10-06T06:29:33.416Z,18.5
2022-10-06T06:39:40.892Z,18.5
2022-10-06T06:49:48.625Z,18.4
2022-10-06T06:59:56.413Z,18.5
2022-10-06T07:10:04.042Z,18.4
2022-10-06T07:20:12.076Z,18.6
2022-10-06T07:30:19.788Z,18.9
2022-10-06T07:40:27.891Z,19.1
2022-10-06T07:50:35.155Z,19.4
2022-10-06T08:00:42.857Z,19.6
2022-10-06T08:10:50.462Z,20
2022-10-06T08:20:57.194Z,20.2
2022-10-06T08:31:04.771Z,20.4
2022-10-06T08:41:13.697Z,20.9
2022-10-06T08:51:21.306Z,22.2
2022-10-06T09:01:29.009Z,23.4
2022-10-06T09:11:36.495Z,23.6
2022-10-06T09:21:44.225Z,23.7
2022-10-06T09:31:51.864Z,23.4
2022-10-06T09:41:59.315Z,23.8
2022-10-06T09:52:07.829Z,24.4
2022-10-06T10:02:15.599Z,24.9
2022-10-06T10:12:23.237Z,25.2
2022-10-06T10:22:30.939Z,24.8
2022-10-06T10:32:38.530Z,25
2022-10-06T10:42:46.173Z,25.7
2022-10-06T10:52:54.851Z,25.6
2022-10-06T11:13:04.706Z,25.8
2022-10-06T11:23:05.860Z,26.1
2022-10-06T11:33:13.763Z,26
2022-10-06T11:43:21.589Z,26
2022-10-06T11:53:29.170Z,26.2
2022-10-06T12:03:37.746Z,26
2022-10-06T12:14:44.364Z,26.2
2022-10-06T12:23:50.201Z,26.3
2022-10-06T12:33:57.909Z,26.3
2022-10-06T12:44:05.506Z,26.5
2022-10-06T13:04:18.403Z,26.6
2022-10-06T13:14:19.627Z,26.5
2022-10-06T13:24:29.669Z,26.1
2022-10-06T13:34:32.092Z,26.7
2022-10-06T13:44:40.236Z,26.2
2022-10-06T13:54:46.120Z,26.7
2022-10-06T14:04:53.360Z,26.5
2022-10-06T14:15:02.171Z,26.4
2022-10-06T14:25:10.777Z,26.3
2022-10-06T14:35:18.682Z,26.5
2022-10-06T14:45:26.197Z,26
2022-10-06T14:55:33.794Z,25.5
2022-10-06T15:05:41.587Z,25.1
2022-10-06T15:15:49.168Z,24.9
2022-10-06T15:25:57.849Z,24.7
2022-10-06T15:36:07.389Z,25.4
2022-10-06T15:46:15.373Z,25.5
2022-10-06T15:56:23.181Z,25.4
2022-10-06T16:06:31.048Z,25.2
2022-10-06T16:16:43.415Z,25
2022-10-06T16:26:46.202Z,24.9
2022-10-06T16:36:53.902Z,24.6
2022-10-06T16:47:02.710Z,24.6
2022-10-06T16:57:10.503Z,24.2
2022-10-06T17:07:18.055Z,23.9
2022-10-06T17:17:18.987Z,23.9
2022-10-06T17:27:27.986Z,24.2
2022-10-06T17:37:35.637Z,24.3
2022-10-06T17:47:45.678Z,23.9
2022-10-06T17:57:44.010Z,23.8
2022-10-06T18:07:52.619Z,23.6
2022-10-06T18:17:56.065Z,23.5
2022-10-06T18:27:56.223Z,23.5
2022-10-06T18:38:00.257Z,23.3
2022-10-06T18:48:00.248Z,23.2
2022-10-06T18:58:09.269Z,23.1
2022-10-06T19:08:18.469Z,23.2
2022-10-06T19:18:17.695Z,23.4
2022-10-06T19:28:25.452Z,23.5
2022-10-06T19:38:32.907Z,23.2
2022-10-06T19:48:40.543Z,23.1
2022-10-06T19:58:48.709Z,23.2
2022-10-06T20:08:56.480Z,23.3
2022-10-06T20:19:04.611Z,22.9
2022-10-06T20:29:13.399Z,22.9
2022-10-06T20:39:21.463Z,22.8
2022-10-06T20:49:28.946Z,22.4
2022-10-06T20:59:36.723Z,22.3
2022-10-06T21:09:49.960Z,22.2
2022-10-06T21:19:53.107Z,22.1
2022-10-06T21:30:01.140Z,21.9
2022-10-06T21:40:09.139Z,21.7
2022-10-06T21:50:16.986Z,21.7
2022-10-06T22:00:24.841Z,21.5
2022-10-06T22:10:33.889Z,21.5
2022-10-06T22:20:41.795Z,21.4
2022-10-06T22:30:49.725Z,21.1
2022-10-06T22:40:57.677Z,21
2022-10-06T22:51:05.598Z,20.9
2022-10-06T23:01:13.535Z,20.7
2022-10-06T23:11:21.347Z,20.8
2022-10-06T23:21:29.107Z,20.7
2022-10-06T23:31:36.902Z,20.7
2022-10-06T23:41:44.777Z,20.7
2022-10-06T23:51:52.622Z,20.4
